Maurepas, Louisiana
Current Conditions -  °F | °C
As of 6:15 PM on Saturday 20 Dec 2014 (Local Time) from K1L0 Reporting Station
Overcast Overcast  
Wind Chill: 52°   Ceiling: 900
Heat Index: 52°   Visibility: 10mi
Dew Point: 48°   Wind: 8mph
Humidity: 85%   Direction: 20°NNE
Pressure: 30.14"   Gusts: NA
Location:  30.3°N, 90.66°W
Report Text: K1L0 210015Z AUTO 02007KT 10SM OVC009 11/09 A3014 RMK AO2 T01130088
Loading
Personal Weather Stations






























Interactive Weather Map New forecast layout! Learn more

10-Day Weather Forecast

Advertisements
Track Severe Weather on mobile